sensor_id;sensor_type;location;lat;lon;timestamp;temperature;humidity
25640;DHT22;13497;48.322;16.204;2023-10-13T00:02:12;17.10;99.90
25640;DHT22;13497;48.322;16.204;2023-10-13T00:04:39;17.10;99.90
25640;DHT22;13497;48.322;16.204;2023-10-13T00:07:05;17.10;99.90
25640;DHT22;13497;48.322;16.204;2023-10-13T00:09:34;17.00;99.90
25640;DHT22;13497;48.322;16.204;2023-10-13T00:12:04;17.00;99.90
25640;DHT22;13497;48.322;16.204;2023-10-13T00:14:34;17.00;99.90
25640;DHT22;13497;48.322;16.204;2023-10-13T00:17:01;17.00;99.90
25640;DHT22;13497;48.322;16.204;2023-10-13T00:19:38;17.10;99.90
25640;DHT22;13497;48.322;16.204;2023-10-13T00:22:10;17.00;99.90
25640;DHT22;13497;48.322;16.204;2023-10-13T00:24:40;17.00;99.90
25640;DHT22;13497;48.322;16.204;2023-10-13T00:27:16;16.90;99.90
25640;DHT22;13497;48.322;16.204;2023-10-13T00:29:51;17.00;99.90
25640;DHT22;13497;48.322;16.204;2023-10-13T00:32:29;17.00;99.90
25640;DHT22;13497;48.322;16.204;2023-10-13T00:34:57;17.10;99.90
25640;DHT22;13497;48.322;16.204;2023-10-13T00:37:23;17.00;99.90
25640;DHT22;13497;48.322;16.204;2023-10-13T00:39:54;16.90;99.90
25640;DHT22;13497;48.322;16.204;2023-10-13T00:42:24;16.90;99.90
25640;DHT22;13497;48.322;16.204;2023-10-13T00:44:59;16.90;99.90
25640;DHT22;13497;48.322;16.204;2023-10-13T00:47:26;17.00;99.90
25640;DHT22;13497;48.322;16.204;2023-10-13T00:50:00;17.10;99.90
25640;DHT22;13497;48.322;16.204;2023-10-13T00:52:26;17.20;99.90
25640;DHT22;13497;48.322;16.204;2023-10-13T00:54:52;17.20;99.90
25640;DHT22;13497;48.322;16.204;2023-10-13T00:57:19;17.20;99.90
25640;DHT22;13497;48.322;16.204;2023-10-13T00:59:56;17.30;99.90
25640;DHT22;13497;48.322;16.204;2023-10-13T01:02:37;17.30;99.90
25640;DHT22;13497;48.322;16.204;2023-10-13T01:05:07;17.20;99.90
25640;DHT22;13497;48.322;16.204;2023-10-13T01:07:37;17.20;99.90
25640;DHT22;13497;48.322;16.204;2023-10-13T01:10:04;17.10;99.90
25640;DHT22;13497;48.322;16.204;2023-10-13T01:12:30;17.10;99.90
25640;DHT22;13497;48.322;16.204;2023-10-13T01:14:59;17.00;99.90
25640;DHT22;13497;48.322;16.204;2023-10-13T01:17:25;17.00;99.90
25640;DHT22;13497;48.322;16.204;2023-10-13T01:19:57;17.00;99.90
25640;DHT22;13497;48.322;16.204;2023-10-13T01:22:24;17.10;99.90
25640;DHT22;13497;48.322;16.204;2023-10-13T01:24:50;17.30;99.90
25640;DHT22;13497;48.322;16.204;2023-10-13T01:27:16;17.30;99.90
25640;DHT22;13497;48.322;16.204;2023-10-13T01:29:46;17.20;99.90
25640;DHT22;13497;48.322;16.204;2023-10-13T01:32:30;17.10;99.90
25640;DHT22;13497;48.322;16.204;2023-10-13T01:34:56;16.90;99.90
25640;DHT22;13497;48.322;16.204;2023-10-13T01:37:30;16.90;99.90
25640;DHT22;13497;48.322;16.204;2023-10-13T01:39:55;16.90;99.90
25640;DHT22;13497;48.322;16.204;2023-10-13T01:42:21;16.90;99.90
25640;DHT22;13497;48.322;16.204;2023-10-13T01:44:47;16.90;99.90
25640;DHT22;13497;48.322;16.204;2023-10-13T01:47:13;16.90;99.90
25640;DHT22;13497;48.322;16.204;2023-10-13T01:49:39;16.80;99.90
25640;DHT22;13497;48.322;16.204;2023-10-13T01:52:09;16.80;99.90
25640;DHT22;13497;48.322;16.204;2023-10-13T01:54:44;16.80;99.90
25640;DHT22;13497;48.322;16.204;2023-10-13T01:57:11;16.80;99.90
25640;DHT22;13497;48.322;16.204;2023-10-13T01:59:40;16.70;99.90
25640;DHT22;13497;48.322;16.204;2023-10-13T02:02:12;16.70;99.90
25640;DHT22;13497;48.322;16.204;2023-10-13T02:04:39;16.50;99.90
25640;DHT22;13497;48.322;16.204;2023-10-13T02:07:15;16.60;99.90
25640;DHT22;13497;48.322;16.204;2023-10-13T02:09:41;16.50;99.90
25640;DHT22;13497;48.322;16.204;2023-10-13T02:12:08;16.60;99.90
25640;DHT22;13497;48.322;16.204;2023-10-13T02:14:35;16.60;99.90
25640;DHT22;13497;48.322;16.204;2023-10-13T02:17:02;16.60;99.90
25640;DHT22;13497;48.322;16.204;2023-10-13T02:19:41;16.70;99.90
25640;DHT22;13497;48.322;16.204;2023-10-13T02:22:10;16.80;99.90
25640;DHT22;13497;48.322;16.204;2023-10-13T02:24:37;16.80;99.90
25640;DHT22;13497;48.322;16.204;2023-10-13T02:27:08;16.80;99.90
25640;DHT22;13497;48.322;16.204;2023-10-13T02:29:41;16.70;99.90
25640;DHT22;13497;48.322;16.204;2023-10-13T02:32:07;16.80;99.90
25640;DHT22;13497;48.322;16.204;2023-10-13T02:34:44;16.70;99.90
25640;DHT22;13497;48.322;16.204;2023-10-13T02:37:11;16.70;99.90
25640;DHT22;13497;48.322;16.204;2023-10-13T02:39:38;16.70;99.90
25640;DHT22;13497;48.322;16.204;2023-10-13T02:42:10;16.70;99.90
25640;DHT22;13497;48.322;16.204;2023-10-13T02:44:49;16.80;99.90
25640;DHT22;13497;48.322;16.204;2023-10-13T02:47:15;16.80;99.90
25640;DHT22;13497;48.322;16.204;2023-10-13T02:49:41;16.80;99.90
25640;DHT22;13497;48.322;16.204;2023-10-13T02:52:11;16.80;99.90
25640;DHT22;13497;48.322;16.204;2023-10-13T02:54:38;16.80;99.90
25640;DHT22;13497;48.322;16.204;2023-10-13T02:57:16;16.80;99.90
25640;DHT22;13497;48.322;16.204;2023-10-13T02:59:45;16.80;99.90
25640;DHT22;13497;48.322;16.204;2023-10-13T03:02:16;16.80;99.90
25640;DHT22;13497;48.322;16.204;2023-10-13T03:04:52;16.80;99.90
25640;DHT22;13497;48.322;16.204;2023-10-13T03:07:24;16.90;99.90
25640;DHT22;13497;48.322;16.204;2023-10-13T03:09:55;16.90;99.90
25640;DHT22;13497;48.322;16.204;2023-10-13T03:12:24;16.90;99.90
25640;DHT22;13497;48.322;16.204;2023-10-13T03:14:59;16.90;99.90
25640;DHT22;13497;48.322;16.204;2023-10-13T03:17:46;16.80;99.90
25640;DHT22;13497;48.322;16.204;2023-10-13T03:20:13;16.80;99.90
25640;DHT22;13497;48.322;16.204;2023-10-13T03:22:41;16.80;99.90
25640;DHT22;13497;48.322;16.204;2023-10-13T03:25:11;16.80;99.90
25640;DHT22;13497;48.322;16.204;2023-10-13T03:27:43;16.80;99.90
25640;DHT22;13497;48.322;16.204;2023-10-13T03:30:19;16.90;99.90
25640;DHT22;13497;48.322;16.204;2023-10-13T03:32:47;16.90;99.90
25640;DHT22;13497;48.322;16.204;2023-10-13T03:35:19;16.80;99.90
25640;DHT22;13497;48.322;16.204;2023-10-13T03:37:54;16.80;99.90
25640;DHT22;13497;48.322;16.204;2023-10-13T03:40:21;16.70;99.90
25640;DHT22;13497;48.322;16.204;2023-10-13T03:42:50;16.70;99.90
25640;DHT22;13497;48.322;16.204;2023-10-13T03:45:37;16.70;99.90
25640;DHT22;13497;48.322;16.204;2023-10-13T03:48:17;16.80;99.90
25640;DHT22;13497;48.322;16.204;2023-10-13T03:50:53;16.80;99.90
25640;DHT22;13497;48.322;16.204;2023-10-13T03:53:33;16.80;99.90
25640;DHT22;13497;48.322;16.204;2023-10-13T03:56:06;16.90;99.90
25640;DHT22;13497;48.322;16.204;2023-10-13T03:58:41;16.80;99.90
25640;DHT22;13497;48.322;16.204;2023-10-13T04:01:18;16.80;99.90
25640;DHT22;13497;48.322;16.204;2023-10-13T04:03:44;16.70;99.90
25640;DHT22;13497;48.322;16.204;2023-10-13T04:06:29;16.70;99.90
25640;DHT22;13497;48.322;16.204;2023-10-13T04:09:16;16.60;99.90
25640;DHT22;13497;48.322;16.204;2023-10-13T04:11:54;16.60;99.90
25640;DHT22;13497;48.322;16.204;2023-10-13T04:14:30;16.60;99.90
25640;DHT22;13497;48.322;16.204;2023-10-13T04:17:14;16.60;99.90
25640;DHT22;13497;48.322;16.204;2023-10-13T04:19:40;16.60;99.90
25640;DHT22;13497;48.322;16.204;2023-10-13T04:22:25;16.70;99.90
25640;DHT22;13497;48.322;16.204;2023-10-13T04:25:27;16.70;99.90
25640;DHT22;13497;48.322;16.204;2023-10-13T04:30:50;16.70;99.90
25640;DHT22;13497;48.322;16.204;2023-10-13T04:33:25;16.70;99.90
25640;DHT22;13497;48.322;16.204;2023-10-13T04:36:08;16.70;99.90
25640;DHT22;13497;48.322;16.204;2023-10-13T04:38:52;16.80;99.90
25640;DHT22;13497;48.322;16.204;2023-10-13T04:41:35;16.80;99.90
25640;DHT22;13497;48.322;16.204;2023-10-13T04:44:07;16.80;99.90
25640;DHT22;13497;48.322;16.204;2023-10-13T04:46:52;16.90;99.90
25640;DHT22;13497;48.322;16.204;2023-10-13T04:49:39;16.90;99.90
25640;DHT22;13497;48.322;16.204;2023-10-13T04:52:08;16.90;99.90
25640;DHT22;13497;48.322;16.204;2023-10-13T04:54:36;16.90;99.90
25640;DHT22;13497;48.322;16.204;2023-10-13T04:57:19;17.00;99.90
25640;DHT22;13497;48.322;16.204;2023-10-13T04:59:46;17.00;99.90
25640;DHT22;13497;48.322;16.204;2023-10-13T05:02:31;17.10;99.90
25640;DHT22;13497;48.322;16.204;2023-10-13T05:05:10;17.00;99.90
25640;DHT22;13497;48.322;16.204;2023-10-13T05:08:07;17.00;99.90
25640;DHT22;13497;48.322;16.204;2023-10-13T05:10:51;17.00;99.90
25640;DHT22;13497;48.322;16.204;2023-10-13T05:13:35;16.90;99.90
25640;DHT22;13497;48.322;16.204;2023-10-13T05:16:19;16.90;99.90
25640;DHT22;13497;48.322;16.204;2023-10-13T05:19:04;17.00;99.90
25640;DHT22;13497;48.322;16.204;2023-10-13T05:21:48;16.90;99.90
25640;DHT22;13497;48.322;16.204;2023-10-13T05:24:32;16.90;99.90
25640;DHT22;13497;48.322;16.204;2023-10-13T05:27:16;16.90;99.90
25640;DHT22;13497;48.322;16.204;2023-10-13T05:30:11;16.90;99.90
25640;DHT22;13497;48.322;16.204;2023-10-13T05:32:56;17.00;99.90
25640;DHT22;13497;48.322;16.204;2023-10-13T05:35:40;17.00;99.90
25640;DHT22;13497;48.322;16.204;2023-10-13T05:38:44;17.00;99.90
25640;DHT22;13497;48.322;16.204;2023-10-13T05:41:28;17.10;99.90
25640;DHT22;13497;48.322;16.204;2023-10-13T05:44:12;17.00;99.90
25640;DHT22;13497;48.322;16.204;2023-10-13T05:46:56;17.00;99.90
25640;DHT22;13497;48.322;16.204;2023-10-13T05:49:40;17.10;99.90
25640;DHT22;13497;48.322;16.204;2023-10-13T05:52:15;17.10;99.90
25640;DHT22;13497;48.322;16.204;2023-10-13T05:54:48;17.00;99.90
25640;DHT22;13497;48.322;16.204;2023-10-13T05:57:32;17.00;99.90
25640;DHT22;13497;48.322;16.204;2023-10-13T06:00:16;16.90;99.90
25640;DHT22;13497;48.322;16.204;2023-10-13T06:03:00;16.80;99.90
25640;DHT22;13497;48.322;16.204;2023-10-13T06:05:45;16.90;99.90
25640;DHT22;13497;48.322;16.204;2023-10-13T06:08:29;17.00;99.90
25640;DHT22;13497;48.322;16.204;2023-10-13T06:11:13;17.10;99.90
25640;DHT22;13497;48.322;16.204;2023-10-13T06:13:57;17.20;99.90
25640;DHT22;13497;48.322;16.204;2023-10-13T06:16:41;17.30;99.90
25640;DHT22;13497;48.322;16.204;2023-10-13T06:19:25;17.30;99.90
25640;DHT22;13497;48.322;16.204;2023-10-13T06:22:09;17.30;99.90
25640;DHT22;13497;48.322;16.204;2023-10-13T06:24:53;17.40;99.90
25640;DHT22;13497;48.322;16.204;2023-10-13T06:27:37;17.40;99.90
25640;DHT22;13497;48.322;16.204;2023-10-13T06:30:24;17.50;99.90
25640;DHT22;13497;48.322;16.204;2023-10-13T06:32:50;17.50;99.90
25640;DHT22;13497;48.322;16.204;2023-10-13T06:35:16;17.50;99.90
25640;DHT22;13497;48.322;16.204;2023-10-13T06:37:48;17.50;99.90
25640;DHT22;13497;48.322;16.204;2023-10-13T06:40:14;17.70;99.90
25640;DHT22;13497;48.322;16.204;2023-10-13T06:42:58;17.80;99.90
25640;DHT22;13497;48.322;16.204;2023-10-13T06:45:38;18.00;99.90
25640;DHT22;13497;48.322;16.204;2023-10-13T06:48:04;18.20;99.90
25640;DHT22;13497;48.322;16.204;2023-10-13T06:50:30;18.30;99.90
25640;DHT22;13497;48.322;16.204;2023-10-13T06:53:04;18.40;99.90
25640;DHT22;13497;48.322;16.204;2023-10-13T06:55:31;18.50;99.90
25640;DHT22;13497;48.322;16.204;2023-10-13T06:58:01;18.60;99.90
25640;DHT22;13497;48.322;16.204;2023-10-13T07:00:27;18.50;99.90
25640;DHT22;13497;48.322;16.204;2023-10-13T07:02:55;18.60;99.90
25640;DHT22;13497;48.322;16.204;2023-10-13T07:05:38;18.80;99.90
25640;DHT22;13497;48.322;16.204;2023-10-13T07:08:07;18.90;99.90
25640;DHT22;13497;48.322;16.204;2023-10-13T07:10:35;19.10;99.90
25640;DHT22;13497;48.322;16.204;2023-10-13T07:13:13;19.30;99.90
25640;DHT22;13497;48.322;16.204;2023-10-13T07:15:40;19.40;99.90
25640;DHT22;13497;48.322;16.204;2023-10-13T07:18:14;19.50;99.90
25640;DHT22;13497;48.322;16.204;2023-10-13T07:20:41;19.60;99.90
25640;DHT22;13497;48.322;16.204;2023-10-13T07:23:13;19.70;99.90
25640;DHT22;13497;48.322;16.204;2023-10-13T07:25:56;19.80;99.90
25640;DHT22;13497;48.322;16.204;2023-10-13T07:28:29;19.90;99.90
25640;DHT22;13497;48.322;16.204;2023-10-13T07:30:59;20.00;99.90
25640;DHT22;13497;48.322;16.204;2023-10-13T07:33:25;20.00;99.90
25640;DHT22;13497;48.322;16.204;2023-10-13T07:36:01;20.00;99.90
25640;DHT22;13497;48.322;16.204;2023-10-13T07:38:37;20.00;99.90
25640;DHT22;13497;48.322;16.204;2023-10-13T07:41:07;20.20;99.90
25640;DHT22;13497;48.322;16.204;2023-10-13T07:43:34;20.40;99.90
25640;DHT22;13497;48.322;16.204;2023-10-13T07:46:02;20.80;99.90
25640;DHT22;13497;48.322;16.204;2023-10-13T07:48:40;21.00;99.90
25640;DHT22;13497;48.322;16.204;2023-10-13T07:51:09;21.40;99.90
25640;DHT22;13497;48.322;16.204;2023-10-13T08:30:12;23.30;99.90
25640;DHT22;13497;48.322;16.204;2023-10-13T08:32:51;23.50;99.90
25640;DHT22;13497;48.322;16.204;2023-10-13T08:35:21;23.60;99.30
25640;DHT22;13497;48.322;16.204;2023-10-13T08:37:56;23.80;99.10
25640;DHT22;13497;48.322;16.204;2023-10-13T08:40:27;23.90;98.40
25640;DHT22;13497;48.322;16.204;2023-10-13T08:43:12;24.00;98.30
25640;DHT22;13497;48.322;16.204;2023-10-13T08:45:40;24.00;97.80
25640;DHT22;13497;48.322;16.204;2023-10-13T08:48:13;24.00;97.20
25640;DHT22;13497;48.322;16.204;2023-10-13T08:50:42;24.10;97.40
25640;DHT22;13497;48.322;16.204;2023-10-13T08:53:21;24.40;97.40
25640;DHT22;13497;48.322;16.204;2023-10-13T08:56:04;24.60;96.90
25640;DHT22;13497;48.322;16.204;2023-10-13T08:58:50;24.70;96.50
25640;DHT22;13497;48.322;16.204;2023-10-13T09:01:26;24.60;95.50
25640;DHT22;13497;48.322;16.204;2023-10-13T09:07:05;24.80;95.60
25640;DHT22;13497;48.322;16.204;2023-10-13T09:09:32;25.00;95.50
25640;DHT22;13497;48.322;16.204;2023-10-13T09:12:28;25.00;94.20
25640;DHT22;13497;48.322;16.204;2023-10-13T09:14:58;25.00;94.60
25640;DHT22;13497;48.322;16.204;2023-10-13T09:17:25;25.10;94.50
25640;DHT22;13497;48.322;16.204;2023-10-13T09:20:06;25.30;94.40
25640;DHT22;13497;48.322;16.204;2023-10-13T09:22:53;25.30;94.20
25640;DHT22;13497;48.322;16.204;2023-10-13T09:25:37;25.20;93.80
25640;DHT22;13497;48.322;16.204;2023-10-13T09:28:14;24.90;93.20
25640;DHT22;13497;48.322;16.204;2023-10-13T09:30:47;24.70;93.20
25640;DHT22;13497;48.322;16.204;2023-10-13T09:33:12;24.70;94.10
25640;DHT22;13497;48.322;16.204;2023-10-13T09:35:44;24.70;93.80
25640;DHT22;13497;48.322;16.204;2023-10-13T09:38:18;24.70;93.40
25640;DHT22;13497;48.322;16.204;2023-10-13T09:40:44;24.60;93.50
25640;DHT22;13497;48.322;16.204;2023-10-13T09:43:19;24.50;93.50
25640;DHT22;13497;48.322;16.204;2023-10-13T09:45:50;24.50;93.70
25640;DHT22;13497;48.322;16.204;2023-10-13T09:48:44;24.50;93.60
25640;DHT22;13497;48.322;16.204;2023-10-13T09:51:29;24.50;93.30
25640;DHT22;13497;48.322;16.204;2023-10-13T09:56:43;24.70;93.20
25640;DHT22;13497;48.322;16.204;2023-10-13T09:59:42;24.80;93.50
25640;DHT22;13497;48.322;16.204;2023-10-13T10:02:14;24.90;92.90
25640;DHT22;13497;48.322;16.204;2023-10-13T10:04:55;25.00;92.30
25640;DHT22;13497;48.322;16.204;2023-10-13T10:07:37;24.90;92.40
25640;DHT22;13497;48.322;16.204;2023-10-13T10:10:05;25.00;92.80
25640;DHT22;13497;48.322;16.204;2023-10-13T10:12:49;25.00;92.90
25640;DHT22;13497;48.322;16.204;2023-10-13T10:15:29;25.00;92.60
25640;DHT22;13497;48.322;16.204;2023-10-13T10:18:02;25.00;93.20
25640;DHT22;13497;48.322;16.204;2023-10-13T10:20:36;25.10;92.10
25640;DHT22;13497;48.322;16.204;2023-10-13T10:23:08;25.20;92.30
25640;DHT22;13497;48.322;16.204;2023-10-13T10:25:48;25.20;91.00
25640;DHT22;13497;48.322;16.204;2023-10-13T10:28:17;25.30;92.30
25640;DHT22;13497;48.322;16.204;2023-10-13T10:30:45;25.40;91.40
25640;DHT22;13497;48.322;16.204;2023-10-13T10:33:12;25.40;91.50
25640;DHT22;13497;48.322;16.204;2023-10-13T10:35:43;25.40;90.60
25640;DHT22;13497;48.322;16.204;2023-10-13T10:38:19;25.40;91.60
25640;DHT22;13497;48.322;16.204;2023-10-13T10:41:06;25.50;91.20
25640;DHT22;13497;48.322;16.204;2023-10-13T10:46:13;25.80;91.30
25640;DHT22;13497;48.322;16.204;2023-10-13T10:48:39;25.80;91.30
25640;DHT22;13497;48.322;16.204;2023-10-13T10:51:12;25.90;91.80
25640;DHT22;13497;48.322;16.204;2023-10-13T10:53:51;26.00;90.00
25640;DHT22;13497;48.322;16.204;2023-10-13T10:56:26;26.00;90.50
25640;DHT22;13497;48.322;16.204;2023-10-13T10:59:04;26.00;90.20
25640;DHT22;13497;48.322;16.204;2023-10-13T11:01:31;25.90;89.30
25640;DHT22;13497;48.322;16.204;2023-10-13T11:04:07;25.90;90.20
25640;DHT22;13497;48.322;16.204;2023-10-13T11:06:50;26.00;90.30
25640;DHT22;13497;48.322;16.204;2023-10-13T11:09:31;26.10;89.60
25640;DHT22;13497;48.322;16.204;2023-10-13T11:12:09;26.20;89.70
25640;DHT22;13497;48.322;16.204;2023-10-13T11:14:42;26.30;89.20
25640;DHT22;13497;48.322;16.204;2023-10-13T11:17:19;26.20;89.50
25640;DHT22;13497;48.322;16.204;2023-10-13T11:19:50;26.30;89.50
25640;DHT22;13497;48.322;16.204;2023-10-13T11:22:20;26.40;89.30
25640;DHT22;13497;48.322;16.204;2023-10-13T11:24:58;26.30;88.80
25640;DHT22;13497;48.322;16.204;2023-10-13T11:27:35;26.40;88.60
25640;DHT22;13497;48.322;16.204;2023-10-13T11:30:13;26.40;89.20
25640;DHT22;13497;48.322;16.204;2023-10-13T11:32:59;26.40;88.00
25640;DHT22;13497;48.322;16.204;2023-10-13T11:35:25;26.50;88.20
25640;DHT22;13497;48.322;16.204;2023-10-13T11:37:54;26.50;88.40
25640;DHT22;13497;48.322;16.204;2023-10-13T11:40:38;26.50;88.00
25640;DHT22;13497;48.322;16.204;2023-10-13T11:43:25;26.60;87.20
25640;DHT22;13497;48.322;16.204;2023-10-13T11:45:51;26.60;86.90
25640;DHT22;13497;48.322;16.204;2023-10-13T11:48:40;26.70;86.90
25640;DHT22;13497;48.322;16.204;2023-10-13T11:51:08;26.80;85.60
25640;DHT22;13497;48.322;16.204;2023-10-13T11:53:35;26.90;85.40
25640;DHT22;13497;48.322;16.204;2023-10-13T11:56:02;26.90;84.80
25640;DHT22;13497;48.322;16.204;2023-10-13T11:58:40;26.90;85.80
25640;DHT22;13497;48.322;16.204;2023-10-13T12:01:06;26.90;84.60
25640;DHT22;13497;48.322;16.204;2023-10-13T12:03:45;26.90;85.50
25640;DHT22;13497;48.322;16.204;2023-10-13T12:06:30;26.90;84.90
25640;DHT22;13497;48.322;16.204;2023-10-13T12:09:09;26.90;83.80
25640;DHT22;13497;48.322;16.204;2023-10-13T12:11:44;26.90;83.20
25640;DHT22;13497;48.322;16.204;2023-10-13T12:14:14;26.80;84.40
25640;DHT22;13497;48.322;16.204;2023-10-13T12:17:03;26.90;83.80
25640;DHT22;13497;48.322;16.204;2023-10-13T12:19:30;26.90;84.20
25640;DHT22;13497;48.322;16.204;2023-10-13T12:21:56;27.00;82.10
25640;DHT22;13497;48.322;16.204;2023-10-13T12:24:23;27.00;81.90
25640;DHT22;13497;48.322;16.204;2023-10-13T12:27:05;27.00;82.70
25640;DHT22;13497;48.322;16.204;2023-10-13T12:29:52;27.00;84.30
25640;DHT22;13497;48.322;16.204;2023-10-13T12:32:21;27.00;83.40
25640;DHT22;13497;48.322;16.204;2023-10-13T12:34:56;27.00;81.30
25640;DHT22;13497;48.322;16.204;2023-10-13T12:37:41;27.00;80.90
25640;DHT22;13497;48.322;16.204;2023-10-13T12:40:13;26.90;80.80
25640;DHT22;13497;48.322;16.204;2023-10-13T12:42:57;26.90;82.20
25640;DHT22;13497;48.322;16.204;2023-10-13T12:45:42;26.90;83.10
25640;DHT22;13497;48.322;16.204;2023-10-13T12:48:27;26.70;83.00
25640;DHT22;13497;48.322;16.204;2023-10-13T12:51:12;26.60;83.30
25640;DHT22;13497;48.322;16.204;2023-10-13T12:53:56;26.60;83.60
25640;DHT22;13497;48.322;16.204;2023-10-13T12:56:30;26.60;82.10
25640;DHT22;13497;48.322;16.204;2023-10-13T12:58:56;26.60;82.60
25640;DHT22;13497;48.322;16.204;2023-10-13T13:01:22;26.50;81.00
25640;DHT22;13497;48.322;16.204;2023-10-13T13:03:50;26.30;81.40
25640;DHT22;13497;48.322;16.204;2023-10-13T13:06:20;26.30;82.90
25640;DHT22;13497;48.322;16.204;2023-10-13T13:08:52;26.30;85.20
25640;DHT22;13497;48.322;16.204;2023-10-13T13:11:19;26.30;86.10
25640;DHT22;13497;48.322;16.204;2023-10-13T13:13:44;26.40;85.50
25640;DHT22;13497;48.322;16.204;2023-10-13T13:16:17;26.40;87.30
25640;DHT22;13497;48.322;16.204;2023-10-13T13:18:45;26.40;88.60
25640;DHT22;13497;48.322;16.204;2023-10-13T13:21:11;26.40;89.00
25640;DHT22;13497;48.322;16.204;2023-10-13T13:23:49;26.40;83.80
25640;DHT22;13497;48.322;16.204;2023-10-13T13:26:15;26.60;81.20
25640;DHT22;13497;48.322;16.204;2023-10-13T13:28:46;26.70;81.70
25640;DHT22;13497;48.322;16.204;2023-10-13T13:31:16;26.80;84.40
25640;DHT22;13497;48.322;16.204;2023-10-13T13:33:42;26.90;86.50
25640;DHT22;13497;48.322;16.204;2023-10-13T13:36:10;27.00;83.10
25640;DHT22;13497;48.322;16.204;2023-10-13T13:38:44;27.00;79.80
25640;DHT22;13497;48.322;16.204;2023-10-13T13:41:18;27.00;87.70
25640;DHT22;13497;48.322;16.204;2023-10-13T13:43:44;26.80;88.30
25640;DHT22;13497;48.322;16.204;2023-10-13T13:46:20;26.60;86.70
25640;DHT22;13497;48.322;16.204;2023-10-13T13:48:59;26.40;88.00
25640;DHT22;13497;48.322;16.204;2023-10-13T13:51:29;26.30;90.80
25640;DHT22;13497;48.322;16.204;2023-10-13T13:53:58;26.20;90.90
25640;DHT22;13497;48.322;16.204;2023-10-13T13:56:25;26.10;90.60
25640;DHT22;13497;48.322;16.204;2023-10-13T13:58:53;25.90;90.90
25640;DHT22;13497;48.322;16.204;2023-10-13T14:01:20;25.70;92.10
25640;DHT22;13497;48.322;16.204;2023-10-13T14:03:52;25.50;91.90
25640;DHT22;13497;48.322;16.204;2023-10-13T14:06:23;25.40;91.90
25640;DHT22;13497;48.322;16.204;2023-10-13T14:08:51;25.40;92.40
25640;DHT22;13497;48.322;16.204;2023-10-13T14:11:21;25.40;93.40
25640;DHT22;13497;48.322;16.204;2023-10-13T14:14:14;25.10;92.30
25640;DHT22;13497;48.322;16.204;2023-10-13T14:16:55;25.00;92.70
25640;DHT22;13497;48.322;16.204;2023-10-13T14:19:41;24.90;92.50
25640;DHT22;13497;48.322;16.204;2023-10-13T14:22:06;24.90;92.80
25640;DHT22;13497;48.322;16.204;2023-10-13T14:24:34;25.00;92.50
25640;DHT22;13497;48.322;16.204;2023-10-13T14:27:02;25.00;93.40
25640;DHT22;13497;48.322;16.204;2023-10-13T14:29:40;25.00;93.90
25640;DHT22;13497;48.322;16.204;2023-10-13T14:32:09;24.90;93.90
25640;DHT22;13497;48.322;16.204;2023-10-13T14:34:42;24.80;94.70
25640;DHT22;13497;48.322;16.204;2023-10-13T14:37:08;24.60;95.00
25640;DHT22;13497;48.322;16.204;2023-10-13T14:39:38;24.30;95.30
25640;DHT22;13497;48.322;16.204;2023-10-13T14:42:04;24.30;95.70
25640;DHT22;13497;48.322;16.204;2023-10-13T14:44:34;24.20;96.10
25640;DHT22;13497;48.322;16.204;2023-10-13T14:47:01;24.10;96.10
25640;DHT22;13497;48.322;16.204;2023-10-13T14:49:27;24.10;96.30
25640;DHT22;13497;48.322;16.204;2023-10-13T14:51:53;24.00;95.80
25640;DHT22;13497;48.322;16.204;2023-10-13T14:54:21;24.10;96.20
25640;DHT22;13497;48.322;16.204;2023-10-13T14:57:00;24.00;96.70
25640;DHT22;13497;48.322;16.204;2023-10-13T14:59:27;24.00;96.90
25640;DHT22;13497;48.322;16.204;2023-10-13T15:01:53;23.90;97.10
25640;DHT22;13497;48.322;16.204;2023-10-13T15:04:18;23.80;97.50
25640;DHT22;13497;48.322;16.204;2023-10-13T15:06:50;23.70;97.40
25640;DHT22;13497;48.322;16.204;2023-10-13T15:09:16;23.60;97.90
25640;DHT22;13497;48.322;16.204;2023-10-13T15:11:49;23.40;97.90
25640;DHT22;13497;48.322;16.204;2023-10-13T15:14:19;23.40;98.00
25640;DHT22;13497;48.322;16.204;2023-10-13T15:16:46;23.20;98.60
25640;DHT22;13497;48.322;16.204;2023-10-13T15:19:12;23.10;98.10
25640;DHT22;13497;48.322;16.204;2023-10-13T15:21:38;23.00;98.70
25640;DHT22;13497;48.322;16.204;2023-10-13T15:24:06;22.80;99.60
25640;DHT22;13497;48.322;16.204;2023-10-13T15:26:51;22.60;99.10
25640;DHT22;13497;48.322;16.204;2023-10-13T15:29:22;22.60;99.00
25640;DHT22;13497;48.322;16.204;2023-10-13T15:31:52;22.50;99.30
25640;DHT22;13497;48.322;16.204;2023-10-13T15:34:23;22.30;99.80
25640;DHT22;13497;48.322;16.204;2023-10-13T15:36:51;22.20;99.80
25640;DHT22;13497;48.322;16.204;2023-10-13T15:39:17;22.10;99.80
25640;DHT22;13497;48.322;16.204;2023-10-13T15:41:49;22.00;99.90
25640;DHT22;13497;48.322;16.204;2023-10-13T15:44:19;22.00;99.90
25640;DHT22;13497;48.322;16.204;2023-10-13T15:46:46;22.00;99.80
25640;DHT22;13497;48.322;16.204;2023-10-13T15:49:21;21.90;99.90
25640;DHT22;13497;48.322;16.204;2023-10-13T15:51:48;21.90;99.90
25640;DHT22;13497;48.322;16.204;2023-10-13T15:54:14;21.80;99.90
25640;DHT22;13497;48.322;16.204;2023-10-13T15:56:42;21.80;99.80
25640;DHT22;13497;48.322;16.204;2023-10-13T15:59:09;21.70;99.80
25640;DHT22;13497;48.322;16.204;2023-10-13T16:01:35;21.60;99.90
25640;DHT22;13497;48.322;16.204;2023-10-13T16:04:01;21.50;99.90
25640;DHT22;13497;48.322;16.204;2023-10-13T16:06:37;21.40;99.90
25640;DHT22;13497;48.322;16.204;2023-10-13T16:09:03;21.40;99.90
25640;DHT22;13497;48.322;16.204;2023-10-13T16:11:29;21.30;99.90
25640;DHT22;13497;48.322;16.204;2023-10-13T16:13:54;21.30;99.90
25640;DHT22;13497;48.322;16.204;2023-10-13T16:16:21;21.10;99.90
25640;DHT22;13497;48.322;16.204;2023-10-13T16:18:53;21.10;99.90
25640;DHT22;13497;48.322;16.204;2023-10-13T16:21:20;21.10;99.90
25640;DHT22;13497;48.322;16.204;2023-10-13T16:23:47;21.10;99.90
25640;DHT22;13497;48.322;16.204;2023-10-13T16:26:17;21.00;99.60
25640;DHT22;13497;48.322;16.204;2023-10-13T16:28:50;21.10;99.40
25640;DHT22;13497;48.322;16.204;2023-10-13T16:31:20;21.10;99.90
25640;DHT22;13497;48.322;16.204;2023-10-13T16:33:49;21.10;99.80
25640;DHT22;13497;48.322;16.204;2023-10-13T16:36:15;21.00;99.90
25640;DHT22;13497;48.322;16.204;2023-10-13T16:38:43;21.00;99.90
25640;DHT22;13497;48.322;16.204;2023-10-13T16:41:11;20.90;99.50
25640;DHT22;13497;48.322;16.204;2023-10-13T16:43:38;21.00;99.30